Main page
METAR-TAF:

METAR-TAF

Airports :

Oelwein Municipal Airport

Oelwein, Iowa, United States

latitude: 42-40-51N, longitude: 091-58-28W, elevation: 1076 ft

Current weather observation

The report was made 28 minutes ago, at 18:55 UTC
Wind 15 mph from the South
Temperature 86°F
Humidity 75%
Pressure 30.03 in. Hg
Visibility: 10 miles
Scattered clouds at a height of 2800 ft

METAR: KOLZ 131855Z AUTO 17013KT 10SM SCT028 30/25 A3003 RMK A01

Time: 14:23 (19:23 UTC)


TAF: missing

Weather observations and forecasts of more than 4000 airports (METAR and TAF reports).

The available stations are represented by yellow and red dots on the map.

Hover mouse over dot to see the name of the station.

Then click to see weather observations and forecasts.

To change the map : click on the green buttons with a black cross to zoom in, on the green button with a dash to zoom out, or on the green arrows for adjacent maps.


METAR-TAF: